Time;durP1;ratioP1;P1;durP2;ratioP2;P2;SDS_P1;SDS_P2;PMS_P1;PMS_P2;Temp;Humidity;BMP_temperature;BMP_pressure;BME280_temperature;BME280_humidity;BME280_pressure;Samples;Min_cycle;Max_cycle;Signal;HPM_P1;HPM_P2
2022/08/08 00:00:20;;;;;;;2.47;2.27;;;24.90;99.90;;;;;;1917705;75;21135;-74
2022/08/08 00:03:17;;;;;;;2.40;2.20;;;24.90;99.90;;;;;;1917708;75;21067;-75
2022/08/08 00:06:13;;;;;;;2.65;2.33;;;24.90;99.90;;;;;;1917801;73;21134;-75
2022/08/08 00:09:10;;;;;;;2.67;2.33;;;24.90;99.90;;;;;;1917979;75;21579;-76
2022/08/08 00:12:07;;;;;;;2.35;2.12;;;24.90;99.90;;;;;;1917924;75;21129;-75
2022/08/08 00:15:03;;;;;;;2.90;2.37;;;24.80;99.90;;;;;;1917833;75;21106;-75
2022/08/08 00:17:59;;;;;;;5.03;2.45;;;24.80;99.90;;;;;;1917848;75;21095;-75
2022/08/08 00:20:55;;;;;;;2.90;2.60;;;24.80;99.90;;;;;;1917841;75;21125;-75
2022/08/08 00:23:51;;;;;;;2.50;2.30;;;24.70;99.90;;;;;;1917748;75;21216;-75
2022/08/08 00:26:45;;;;;;;2.55;2.35;;;24.70;99.90;;;;;;1917728;75;21062;-75
2022/08/08 00:29:41;;;;;;;2.60;2.40;;;24.70;99.90;;;;;;1917701;75;21578;-75
2022/08/08 00:32:37;;;;;;;2.50;2.30;;;24.70;99.90;;;;;;1917592;75;21124;-75
2022/08/08 00:35:37;;;;;;;2.37;2.17;;;24.70;99.90;;;;;;1917477;75;21055;-75
2022/08/08 00:38:39;;;;;;;4.55;4.10;;;24.50;99.90;;;;;;1917596;73;21068;-75
2022/08/08 00:41:56;;;;;;;5.58;5.08;;;24.40;99.90;;;;;;1917864;75;21072;-75
2022/08/08 00:45:17;;;;;;;3.20;2.90;;;24.30;99.90;;;;;;1939512;73;21153;-75
2022/08/08 00:48:52;;;;;;;3.58;3.27;;;24.10;99.90;;;;;;1917943;73;21064;-75
2022/08/08 00:55:06;;;;;;;6.00;4.65;;;24.00;99.90;;;;;;1952780;72;22284;-74
2022/08/08 00:58:25;;;;;;;4.78;4.28;;;23.90;99.90;;;;;;1906536;75;21106;-74
2022/08/08 01:01:22;;;;;;;;;;;23.90;99.90;;;;;;1889517;75;21070;-74
2022/08/08 01:04:51;;;;;;;3.77;3.47;;;23.80;99.90;;;;;;1895510;75;20123;-74
2022/08/08 01:08:19;;;;;;;4.17;2.58;;;23.80;99.90;;;;;;1895486;75;21543;-74
2022/08/08 01:11:37;;;;;;;3.67;2.72;;;23.80;99.90;;;;;;1891573;75;21217;-74
2022/08/08 01:15:12;;;;;;;3.00;2.22;;;23.70;99.90;;;;;;1906525;75;21166;-75
2022/08/08 01:18:23;;;;;;;2.52;2.33;;;23.60;99.90;;;;;;1907191;75;21078;-75
2022/08/08 01:21:32;;;;;;;2.58;2.00;;;23.60;99.90;;;;;;1906883;75;21105;-75
2022/08/08 01:24:50;;;;;;;2.45;2.25;;;23.60;99.90;;;;;;1892143;75;21184;-75
2022/08/08 01:28:15;;;;;;;2.42;2.22;;;23.70;99.90;;;;;;1895472;75;21096;-75
2022/08/08 01:32:08;;;;;;;2.60;2.40;;;23.70;99.90;;;;;;1896462;75;21047;-75
2022/08/08 01:35:14;;;;;;;2.17;2.08;;;23.70;99.90;;;;;;1894744;75;21124;-75
2022/08/08 01:38:32;;;;;;;2.47;2.20;;;23.70;99.90;;;;;;1885036;76;21564;-75
2022/08/08 01:41:29;;;;;;;2.20;2.10;;;23.80;99.90;;;;;;1884923;76;21098;-74
2022/08/08 01:44:32;;;;;;;2.05;1.90;;;23.80;99.90;;;;;;1899576;75;21122;-74
2022/08/08 01:47:29;;;;;;;2.10;1.90;;;23.80;99.90;;;;;;1896619;75;21055;-74
2022/08/08 01:50:31;;;;;;;2.45;2.22;;;23.80;99.90;;;;;;1895292;75;21110;-74
2022/08/08 01:53:36;;;;;;;2.67;2.47;;;23.80;99.90;;;;;;1900175;74;21415;-74
2022/08/08 01:56:34;;;;;;;2.40;2.20;;;23.70;99.90;;;;;;1919893;74;21128;-74
2022/08/08 01:59:46;;;;;;;2.45;2.25;;;23.70;99.90;;;;;;1933974;74;21118;-74
2022/08/08 02:03:05;;;;;;;2.10;2.00;;;23.70;99.90;;;;;;1920412;74;21128;-74
2022/08/08 02:06:02;;;;;;;2.35;2.15;;;23.60;99.90;;;;;;1900043;75;21495;-74
2022/08/08 02:09:01;;;;;;;2.58;2.30;;;23.60;99.90;;;;;;1899749;75;21054;-74
2022/08/08 02:11:58;;;;;;;2.27;2.08;;;23.60;99.90;;;;;;1914231;74;21150;-75
2022/08/08 02:14:56;;;;;;;2.70;2.30;;;23.50;99.90;;;;;;1910564;74;21138;-75
2022/08/08 02:17:54;;;;;;;2.72;2.17;;;23.50;99.90;;;;;;1910738;74;21125;-75
2022/08/08 02:24:24;;;;;;;3.25;2.30;;;23.40;99.90;;;;;;1903081;74;21134;-75
2022/08/08 02:27:24;;;;;;;2.50;2.30;;;23.40;99.90;;;;;;1910870;74;21062;-75
2022/08/08 02:30:21;;;;;;;2.75;1.85;;;23.40;99.90;;;;;;1912770;74;21073;-75
2022/08/08 02:33:26;;;;;;;2.27;2.05;;;23.40;99.90;;;;;;1900047;74;21123;-74
2022/08/08 02:36:30;;;;;;;2.62;2.37;;;23.30;99.90;;;;;;1913917;74;21491;-75
2022/08/08 02:39:48;;;;;;;2.33;2.12;;;23.40;99.90;;;;;;1910868;74;21102;-75
2022/08/08 02:43:08;;;;;;;2.72;2.30;;;23.30;99.90;;;;;;1912467;74;21109;-74
2022/08/08 02:46:43;;;;;;;2.27;2.08;;;23.30;99.90;;;;;;1899953;75;21131;-75
2022/08/08 02:49:57;;;;;;;2.58;2.33;;;23.30;99.90;;;;;;1919414;74;21167;-75
2022/08/08 02:53:14;;;;;;;2.50;2.30;;;23.30;99.90;;;;;;1919128;74;21208;-76
2022/08/08 02:56:32;;;;;;;2.60;2.40;;;23.20;99.90;;;;;;1933164;74;21070;-75
2022/08/08 02:59:54;;;;;;;2.20;2.10;;;23.20;99.90;;;;;;1920903;74;21118;-75
2022/08/08 03:03:35;;;;;;;4.15;2.60;;;23.10;99.90;;;;;;1922073;74;21171;-75
2022/08/08 03:07:11;;;;;;;2.40;2.20;;;23.10;99.90;;;;;;1906723;74;21167;-75
2022/08/08 03:10:33;;;;;;;2.50;2.30;;;23.00;99.90;;;;;;1921468;74;21125;-74
2022/08/08 03:13:43;;;;;;;2.50;2.30;;;23.00;99.90;;;;;;1913157;74;21054;-74
2022/08/08 03:16:44;;;;;;;2.50;2.15;;;22.90;99.90;;;;;;1911874;74;21143;-75
2022/08/08 03:20:10;;;;;;;2.70;2.50;;;22.90;99.90;;;;;;1911079;74;21135;-74
2022/08/08 03:23:02;;;;;;;2.70;2.50;;;22.90;99.90;;;;;;1900820;74;21125;-75
2022/08/08 03:25:56;;;;;;;3.90;2.40;;;22.80;99.90;;;;;;1911004;74;21116;-74
2022/08/08 03:28:52;;;;;;;4.17;2.60;;;22.70;99.90;;;;;;1910606;74;21066;-74
2022/08/08 03:34:54;;;;;;;3.17;2.77;;;22.60;99.90;;;;;;1918248;74;21603;-74
2022/08/08 03:37:47;;;;;;;2.58;2.30;;;22.60;99.90;;;;;;1913074;74;21109;-75
2022/08/08 03:40:40;;;;;;;3.17;2.87;;;22.60;99.90;;;;;;1910912;74;21099;-74
2022/08/08 03:43:33;;;;;;;2.65;2.42;;;22.60;99.90;;;;;;1910827;74;21124;-75
2022/08/08 03:46:26;;;;;;;2.87;2.17;;;22.60;99.90;;;;;;1933324;74;21083;-74
2022/08/08 03:49:20;;;;;;;3.20;2.90;;;22.70;99.90;;;;;;1916500;74;21526;-75
2022/08/08 03:52:13;;;;;;;3.42;2.45;;;22.70;99.90;;;;;;1911631;74;21062;-74
2022/08/08 03:55:10;;;;;;;3.17;2.45;;;22.70;99.90;;;;;;1910916;74;21115;-75
2022/08/08 03:58:03;;;;;;;3.97;2.53;;;22.70;99.90;;;;;;1911279;74;21573;-74
2022/08/08 04:00:57;;;;;;;2.58;2.22;;;22.60;99.90;;;;;;1913364;74;21103;-75
2022/08/08 04:04:01;;;;;;;2.40;2.20;;;22.60;99.90;;;;;;1917765;74;21071;-75
2022/08/08 04:06:58;;;;;;;2.58;2.30;;;22.60;99.90;;;;;;1913024;74;21087;-74
2022/08/08 04:09:57;;;;;;;3.15;2.62;;;22.60;99.90;;;;;;1923699;74;21125;-75
2022/08/08 04:12:50;;;;;;;2.75;2.55;;;22.60;99.90;;;;;;1922407;74;21130;-74
2022/08/08 04:15:42;;;;;;;3.33;2.27;;;22.60;99.90;;;;;;1921764;74;21502;-74
2022/08/08 04:18:35;;;;;;;3.42;2.83;;;22.60;99.90;;;;;;1917682;74;21120;-75
2022/08/08 04:21:28;;;;;;;2.65;2.45;;;22.60;99.90;;;;;;1912782;74;21176;-75
2022/08/08 04:24:22;;;;;;;2.98;2.60;;;22.50;99.90;;;;;;1925723;74;21115;-75
2022/08/08 04:27:15;;;;;;;3.30;2.60;;;22.60;99.90;;;;;;1922099;74;21066;-75
2022/08/08 04:30:11;;;;;;;2.80;2.60;;;22.60;99.90;;;;;;1920262;74;21141;-75
2022/08/08 04:33:04;;;;;;;3.40;3.10;;;22.50;99.90;;;;;;1916782;74;21560;-75
2022/08/08 04:35:57;;;;;;;2.80;2.60;;;22.50;99.90;;;;;;1911336;74;21136;-75
2022/08/08 04:38:50;;;;;;;3.37;2.90;;;22.50;99.90;;;;;;1910623;74;21133;-75
2022/08/08 04:41:43;;;;;;;3.27;2.50;;;22.50;99.90;;;;;;1909089;74;21159;-75
2022/08/08 04:44:36;;;;;;;3.05;2.85;;;22.50;99.90;;;;;;1899302;75;21196;-75
2022/08/08 04:47:28;;;;;;;2.60;2.40;;;22.40;99.90;;;;;;1912608;74;21491;-75
2022/08/08 04:50:19;;;;;;;3.98;2.80;;;22.30;99.90;;;;;;1910880;74;21135;-75
2022/08/08 04:53:12;;;;;;;3.35;2.75;;;22.20;99.90;;;;;;1907550;74;21119;-74
2022/08/08 04:56:06;;;;;;;2.80;2.52;;;22.20;99.90;;;;;;1920248;74;21077;-74
2022/08/08 04:58:58;;;;;;;2.80;2.60;;;22.30;99.90;;;;;;1916734;74;21120;-74
2022/08/08 05:01:50;;;;;;;3.05;2.60;;;22.30;99.90;;;;;;1922048;74;21094;-75
2022/08/08 05:04:44;;;;;;;2.45;2.25;;;22.30;99.90;;;;;;1927216;74;21109;-75
2022/08/08 05:07:37;;;;;;;3.02;2.60;;;22.30;99.90;;;;;;1910082;74;21150;-75
2022/08/08 05:10:29;;;;;;;3.33;2.50;;;22.40;99.90;;;;;;1917789;74;21142;-75
2022/08/08 05:13:23;;;;;;;2.92;2.55;;;22.40;99.90;;;;;;1912752;74;21139;-75
2022/08/08 05:16:16;;;;;;;2.95;2.75;;;22.50;99.90;;;;;;1909995;74;21086;-74
2022/08/08 05:19:11;;;;;;;2.87;2.67;;;22.50;99.90;;;;;;1907438;74;21126;-75
2022/08/08 05:22:05;;;;;;;6.67;2.65;;;22.40;99.90;;;;;;1920623;74;21113;-75
2022/08/08 05:24:57;;;;;;;2.62;2.42;;;22.40;99.90;;;;;;1915607;74;21086;-75
2022/08/08 05:27:48;;;;;;;2.87;2.50;;;22.40;99.90;;;;;;1910720;74;21098;-75
2022/08/08 05:30:41;;;;;;;3.08;2.77;;;22.40;99.90;;;;;;1927438;74;21125;-75
2022/08/08 05:33:34;;;;;;;3.52;2.90;;;22.50;99.90;;;;;;1921992;74;21562;-75
2022/08/08 05:36:29;;;;;;;2.72;2.45;;;22.50;99.90;;;;;;1918090;74;21114;-75
2022/08/08 05:39:24;;;;;;;3.22;2.85;;;22.40;99.90;;;;;;1913138;74;21087;-75
2022/08/08 05:42:17;;;;;;;2.92;2.62;;;22.40;99.90;;;;;;1901670;74;21217;-75
2022/08/08 05:45:12;;;;;;;3.25;2.70;;;22.40;99.90;;;;;;1900473;74;21178;-75
2022/08/08 05:48:06;;;;;;;3.17;2.80;;;22.40;99.90;;;;;;1921136;74;21171;-75
2022/08/08 05:51:00;;;;;;;2.85;2.65;;;22.40;99.90;;;;;;1899801;74;21737;-75
2022/08/08 05:53:53;;;;;;;2.87;2.58;;;22.50;99.90;;;;;;1900106;75;21082;-75
2022/08/08 05:56:46;;;;;;;3.05;2.75;;;22.50;99.90;;;;;;1915885;74;21161;-74
2022/08/08 05:59:41;;;;;;;3.20;2.90;;;22.50;99.90;;;;;;1906327;75;21503;-75
2022/08/08 06:05:50;;;;;;;2.87;2.67;;;22.60;99.90;;;;;;1902931;75;21076;-74
2022/08/08 06:08:45;;;;;;;3.42;2.67;;;22.60;99.90;;;;;;1898794;75;21047;-75
2022/08/08 06:11:38;;;;;;;3.80;2.37;;;22.70;99.90;;;;;;1884449;75;21197;-75
2022/08/08 06:14:31;;;;;;;3.17;2.55;;;22.60;99.90;;;;;;1906088;75;21074;-75
2022/08/08 06:17:26;;;;;;;4.15;2.70;;;22.60;99.90;;;;;;1905943;75;21098;-75
2022/08/08 06:20:19;;;;;;;3.00;2.70;;;22.60;99.90;;;;;;1902445;75;21119;-75
2022/08/08 06:23:13;;;;;;;2.77;2.58;;;22.70;99.90;;;;;;1897566;75;21042;-75
2022/08/08 06:26:07;;;;;;;2.95;2.70;;;22.70;99.90;;;;;;1886251;75;21156;-75
2022/08/08 06:29:05;;;;;;;3.20;2.90;;;22.80;99.90;;;;;;1905796;75;21193;-75
2022/08/08 06:32:01;;;;;;;2.90;2.08;;;22.80;99.90;;;;;;1884547;75;21576;-75
2022/08/08 06:34:57;;;;;;;2.37;2.17;;;22.80;99.90;;;;;;1898438;75;21204;-75
2022/08/08 06:37:52;;;;;;;4.42;2.58;;;22.80;99.90;;;;;;1897601;75;21511;-76
2022/08/08 06:40:47;;;;;;;2.85;2.55;;;22.90;99.90;;;;;;1875956;75;21634;-76
2022/08/08 06:43:44;;;;;;;2.95;2.35;;;22.90;99.90;;;;;;1894368;75;21212;-76
2022/08/08 06:46:39;;;;;;;2.75;2.40;;;23.00;99.90;;;;;;1916467;75;21175;-77
2022/08/08 06:49:32;;;;;;;3.40;2.25;;;23.10;99.90;;;;;;1897773;75;21106;-76
2022/08/08 06:52:26;;;;;;;2.65;2.33;;;23.10;99.90;;;;;;1897689;75;21182;-76
2022/08/08 06:55:20;;;;;;;2.58;2.17;;;23.10;99.90;;;;;;1885214;75;21530;-76
2022/08/08 06:58:11;;;;;;;3.35;2.22;;;23.20;99.90;;;;;;1906139;74;21535;-76
2022/08/08 07:01:16;;;;;;;2.75;2.52;;;23.30;99.90;;;;;;1905122;75;21168;-77
2022/08/08 07:04:21;;;;;;;3.12;2.77;;;23.30;99.90;;;;;;1904899;75;21139;-76
2022/08/08 07:07:19;;;;;;;2.90;2.60;;;23.30;99.90;;;;;;1901794;75;21125;-76
2022/08/08 07:10:12;;;;;;;2.95;2.30;;;23.30;99.90;;;;;;1897354;75;21602;-76
2022/08/08 07:13:06;;;;;;;3.95;2.45;;;23.30;99.90;;;;;;1894736;75;21063;-76
2022/08/08 07:16:06;;;;;;;3.20;2.50;;;23.40;99.90;;;;;;1894724;75;21187;-76
2022/08/08 07:19:06;;;;;;;4.28;2.70;;;23.40;99.90;;;;;;1895145;75;21479;-76
2022/08/08 07:22:02;;;;;;;3.05;2.45;;;23.60;99.90;;;;;;1897568;75;21117;-76
2022/08/08 07:25:00;;;;;;;2.80;2.40;;;23.70;99.90;;;;;;1884216;76;21088;-76
2022/08/08 07:27:56;;;;;;;4.62;2.33;;;23.80;99.90;;;;;;1906220;75;21063;-76
2022/08/08 07:30:50;;;;;;;3.80;2.22;;;23.80;99.90;;;;;;1906167;75;21228;-76
2022/08/08 07:33:42;;;;;;;7.53;2.80;;;23.90;99.90;;;;;;1907763;75;21099;-76
2022/08/08 07:36:35;;;;;;;5.15;2.70;;;23.90;99.90;;;;;;1897928;75;21207;-76
2022/08/08 07:39:30;;;;;;;5.60;2.60;;;23.90;99.90;;;;;;1898497;75;21100;-76
2022/08/08 07:42:25;;;;;;;10.05;2.90;;;24.00;99.90;;;;;;1894618;75;21067;-76
2022/08/08 07:45:17;;;;;;;7.17;2.52;;;24.10;99.90;;;;;;1889663;75;21122;-76
2022/08/08 07:48:10;;;;;;;3.40;2.45;;;24.10;99.90;;;;;;1906169;75;21153;-76
2022/08/08 07:51:03;;;;;;;3.83;2.37;;;24.10;99.90;;;;;;1900189;75;21051;-76
2022/08/08 07:54:04;;;;;;;4.03;2.62;;;24.20;99.90;;;;;;1896607;75;21367;-76
2022/08/08 07:56:58;;;;;;;;;;;24.30;99.90;;;;;;1911273;75;21230;-76
2022/08/08 07:59:56;;;;;;;3.10;2.83;;;24.40;99.90;;;;;;1905772;75;20202;-76
2022/08/08 08:02:50;;;;;;;3.52;2.40;;;24.40;99.90;;;;;;1883602;76;21118;-76
2022/08/08 08:05:44;;;;;;;3.05;2.67;;;24.50;99.90;;;;;;1900797;75;21099;-76
2022/08/08 08:08:57;;;;;;;2.62;2.42;;;24.50;99.90;;;;;;1896733;75;21087;-76
2022/08/08 08:12:11;;;;;;;2.80;2.17;;;24.60;99.90;;;;;;1900467;75;21142;-81
2022/08/08 08:15:07;;;;;;;3.20;2.47;;;24.70;99.90;;;;;;1895716;75;21102;-80
2022/08/08 08:18:03;;;;;;;3.87;2.60;;;24.80;99.90;;;;;;1894718;75;21098;-80
2022/08/08 08:20:55;;;;;;;3.95;2.45;;;24.90;99.90;;;;;;1894806;75;21120;-81
2022/08/08 08:23:46;;;;;;;3.50;2.55;;;25.00;99.90;;;;;;1896967;75;21179;-80
2022/08/08 08:26:39;;;;;;;2.77;2.08;;;25.00;99.90;;;;;;1883980;76;21111;-80
2022/08/08 08:29:33;;;;;;;3.83;2.60;;;25.10;99.90;;;;;;1905827;75;21571;-80
2022/08/08 08:32:26;;;;;;;3.70;2.15;;;25.20;99.90;;;;;;1889203;75;21036;-80
2022/08/08 08:35:26;;;;;;;5.28;2.80;;;25.30;99.90;;;;;;1895068;75;21126;-80
2022/08/08 08:38:26;;;;;;;4.95;2.77;;;25.40;99.90;;;;;;1895673;75;21121;-80
2022/08/08 08:41:27;;;;;;;4.00;2.55;;;25.40;99.90;;;;;;1901105;75;21165;-80
2022/08/08 08:44:21;;;;;;;2.67;2.35;;;25.40;99.90;;;;;;1883838;75;21097;-80
2022/08/08 08:47:15;;;;;;;4.53;2.35;;;25.50;99.90;;;;;;1893461;75;21071;-78
2022/08/08 08:50:10;;;;;;;4.30;2.55;;;25.60;99.90;;;;;;1889887;75;21198;-78
2022/08/08 08:53:05;;;;;;;7.05;2.40;;;25.60;99.90;;;;;;1905837;75;21122;-78
2022/08/08 08:56:07;;;;;;;5.28;2.80;;;25.70;99.90;;;;;;1884207;75;21131;-78
2022/08/08 08:59:07;;;;;;;3.40;2.37;;;25.80;99.90;;;;;;1903577;74;21074;-80
2022/08/08 09:02:02;;;;;;;2.70;2.50;;;25.90;99.90;;;;;;1905499;74;21172;-80
2022/08/08 09:04:57;;;;;;;3.77;2.30;;;25.80;99.90;;;;;;1904105;74;21055;-80
2022/08/08 09:07:52;;;;;;;2.55;2.22;;;25.90;99.90;;;;;;1901633;74;21099;-80
2022/08/08 09:10:46;;;;;;;3.98;2.62;;;26.00;99.90;;;;;;1893347;76;21631;-80
2022/08/08 09:13:40;;;;;;;3.55;2.62;;;26.10;99.90;;;;;;1908830;74;21208;-80
2022/08/08 09:16:42;;;;;;;3.52;2.60;;;26.20;99.90;;;;;;1906121;74;21188;-80
2022/08/08 09:19:35;;;;;;;3.37;2.67;;;26.20;99.90;;;;;;1904639;74;21566;-80
2022/08/08 09:22:30;;;;;;;4.20;3.55;;;26.20;99.90;;;;;;1904294;74;21108;-80
2022/08/08 09:25:22;;;;;;;3.08;2.87;;;26.20;99.90;;;;;;1906114;74;21126;-80
2022/08/08 09:28:17;;;;;;;3.08;2.72;;;26.30;99.90;;;;;;1909475;74;21163;-80
2022/08/08 09:31:14;;;;;;;3.02;2.50;;;26.30;99.90;;;;;;1904940;74;21519;-80
2022/08/08 09:34:09;;;;;;;3.37;2.67;;;26.30;99.90;;;;;;1919067;74;21133;-80
2022/08/08 09:39:45;;;;;;;3.42;2.45;;;26.20;99.90;;;;;;1958044;72;22164;-79
2022/08/08 09:42:39;;;;;;;2.92;2.58;;;26.30;99.90;;;;;;1917785;75;21089;-79
2022/08/08 09:45:35;;;;;;;3.52;2.50;;;26.40;99.90;;;;;;1948309;73;21113;-79
2022/08/08 09:48:31;;;;;;;4.05;2.52;;;26.30;99.90;;;;;;1923854;73;21169;-79
2022/08/08 09:51:35;;;;;;;3.05;2.27;;;26.30;99.90;;;;;;1917887;75;21559;-79
2022/08/08 09:54:31;;;;;;;;;;;26.30;99.90;;;;;;1920442;75;21111;-79
2022/08/08 09:57:28;;;;;;;3.10;2.80;;;26.20;99.90;;;;;;1917667;75;20145;-79
2022/08/08 10:00:21;;;;;;;2.92;2.33;;;26.20;99.90;;;;;;1930051;73;21074;-80
2022/08/08 10:03:25;;;;;;;2.75;2.50;;;26.30;99.90;;;;;;1919402;73;21193;-79
2022/08/08 10:06:18;;;;;;;2.95;2.58;;;26.40;99.90;;;;;;1916957;75;21051;-79
2022/08/08 10:09:34;;;;;;;2.80;2.60;;;26.40;99.90;;;;;;1917569;75;21074;-79
2022/08/08 10:12:42;;;;;;;5.92;3.20;;;26.50;99.90;;;;;;1919538;74;21066;-79
2022/08/08 10:15:38;;;;;;;3.85;2.90;;;26.60;99.90;;;;;;1949957;73;21058;-79
2022/08/08 10:18:33;;;;;;;3.08;2.87;;;26.80;99.90;;;;;;1934301;73;21082;-79
2022/08/08 10:21:25;;;;;;;3.67;2.80;;;26.90;99.90;;;;;;1929340;73;21685;-80
2022/08/08 10:24:28;;;;;;;2.90;2.70;;;26.90;99.90;;;;;;1928806;73;21063;-79
2022/08/08 10:27:29;;;;;;;3.67;2.70;;;26.90;99.90;;;;;;1928556;73;21240;-80
2022/08/08 10:30:24;;;;;;;4.08;2.92;;;26.90;99.90;;;;;;1926667;73;21511;-80
2022/08/08 10:33:18;;;;;;;3.17;2.87;;;27.00;99.90;;;;;;1917060;75;21187;-79
2022/08/08 10:36:11;;;;;;;3.92;3.12;;;27.10;99.90;;;;;;1917482;75;21095;-79
2022/08/08 10:39:05;;;;;;;3.22;2.90;;;27.20;99.90;;;;;;1917588;74;21186;-80
2022/08/08 10:41:59;;;;;;;4.50;4.10;;;27.30;99.90;;;;;;1922599;73;21094;-79
2022/08/08 10:45:00;;;;;;;8.55;7.80;;;27.40;99.90;;;;;;1928668;73;21515;-79
2022/08/08 10:47:58;;;;;;;12.33;11.18;;;27.40;99.90;;;;;;1932887;73;21063;-78
2022/08/08 10:50:57;;;;;;;12.53;11.28;;;27.40;99.90;;;;;;1916923;75;21051;-77
2022/08/08 10:53:54;;;;;;;13.53;12.28;;;27.40;99.90;;;;;;1928912;73;21126;-78
2022/08/08 10:56:46;;;;;;;14.98;13.58;;;27.50;99.90;;;;;;1928357;73;21074;-78
2022/08/08 10:59:39;;;;;;;13.75;12.45;;;27.70;99.90;;;;;;1925597;73;21120;-78
2022/08/08 11:02:33;;;;;;;11.03;9.98;;;27.90;99.90;;;;;;1917022;75;21124;-78
2022/08/08 11:05:26;;;;;;;9.48;8.38;;;28.00;99.90;;;;;;1931235;73;21047;-78
2022/08/08 11:08:28;;;;;;;9.18;8.25;;;28.10;99.90;;;;;;1918115;73;21110;-78
2022/08/08 11:11:43;;;;;;;7.85;6.95;;;28.20;99.90;;;;;;1916913;75;21136;-78
2022/08/08 11:14:48;;;;;;;6.70;6.00;;;28.20;99.90;;;;;;1916921;75;21106;-79
2022/08/08 11:17:42;;;;;;;6.60;6.00;;;28.30;99.90;;;;;;1916893;75;21163;-78
2022/08/08 11:20:50;;;;;;;7.92;7.12;;;28.30;99.90;;;;;;1916914;75;21156;-77
2022/08/08 11:24:03;;;;;;;7.35;6.65;;;28.40;99.90;;;;;;1918276;73;21365;-78
2022/08/08 11:27:00;;;;;;;7.55;6.78;;;28.40;99.90;;;;;;1929685;73;21566;-77
2022/08/08 11:29:56;;;;;;;9.75;7.72;;;28.40;99.90;;;;;;1917078;75;21161;-77
2022/08/08 11:32:51;;;;;;;8.80;7.90;;;28.50;99.90;;;;;;1929758;73;21126;-78
2022/08/08 11:35:45;;;;;;;8.58;7.75;;;28.60;99.90;;;;;;1927767;73;21660;-78
2022/08/08 11:38:37;;;;;;;8.40;7.55;;;28.70;99.90;;;;;;1925617;73;21160;-78
2022/08/08 11:41:30;;;;;;;10.48;6.60;;;28.80;99.90;;;;;;1916912;75;21335;-78
2022/08/08 11:44:23;;;;;;;7.25;6.33;;;28.90;99.90;;;;;;1916649;75;21080;-80
2022/08/08 11:47:24;;;;;;;5.03;4.60;;;29.10;99.90;;;;;;1929091;73;21116;-80
2022/08/08 11:50:19;;;;;;;6.62;4.20;;;29.20;99.90;;;;;;1920687;73;21155;-80
2022/08/08 11:53:14;;;;;;;7.37;5.00;;;29.10;99.90;;;;;;1916869;75;21055;-79
2022/08/08 11:56:05;;;;;;;7.08;6.15;;;29.20;99.90;;;;;;1916593;75;21202;-80
2022/08/08 11:59:06;;;;;;;9.85;8.05;;;29.20;99.90;;;;;;1916916;75;21106;-79
2022/08/08 12:02:06;;;;;;;7.83;7.12;;;29.20;99.90;;;;;;1916477;75;21114;-79
2022/08/08 12:05:08;;;;;;;7.85;7.08;;;29.30;99.90;;;;;;1925497;73;21121;-79
2022/08/08 12:08:01;;;;;;;9.83;8.40;;;29.50;99.90;;;;;;1927880;73;21109;-79
2022/08/08 12:10:56;;;;;;;9.03;7.60;;;29.50;99.90;;;;;;1927484;73;21567;-79
2022/08/08 12:13:48;;;;;;;8.40;7.70;;;29.50;99.90;;;;;;1934776;73;21200;-79
2022/08/08 12:16:51;;;;;;;7.90;7.20;;;29.70;99.90;;;;;;1937348;73;21129;-80
2022/08/08 12:19:43;;;;;;;12.03;10.80;;;29.70;99.90;;;;;;1939493;73;21070;-79
2022/08/08 12:22:47;;;;;;;15.90;13.88;;;29.70;99.90;;;;;;1916694;75;21186;-78
2022/08/08 12:25:41;;;;;;;10.82;9.83;;;29.80;99.90;;;;;;1916909;75;21172;-78
2022/08/08 12:28:34;;;;;;;7.12;6.20;;;29.80;99.90;;;;;;1937668;73;21186;-78
2022/08/08 12:31:35;;;;;;;6.97;6.37;;;29.80;99.90;;;;;;1916967;75;21697;-78
2022/08/08 12:34:48;;;;;;;7.17;6.53;;;29.80;99.90;;;;;;1917084;75;21081;-78
2022/08/08 12:37:48;;;;;;;8.58;6.92;;;29.80;99.90;;;;;;1917154;75;21098;-78
2022/08/08 12:40:44;;;;;;;5.50;5.00;;;30.00;99.90;;;;;;1939240;73;21086;-78
2022/08/08 12:43:47;;;;;;;5.85;5.20;;;30.00;99.90;;;;;;1916522;75;21135;-78
2022/08/08 12:46:40;;;;;;;5.97;5.47;;;29.90;99.90;;;;;;1916429;75;21130;-78
2022/08/08 12:49:35;;;;;;;7.00;6.30;;;30.00;99.90;;;;;;1872108;76;21152;-78
2022/08/08 12:52:31;;;;;;;7.45;6.75;;;30.10;99.90;;;;;;1916861;75;21133;-78
2022/08/08 12:55:23;;;;;;;7.60;6.90;;;30.20;99.90;;;;;;1917032;75;21055;-78
2022/08/08 12:58:16;;;;;;;6.87;5.72;;;30.20;99.90;;;;;;1916566;75;21677;-79
2022/08/08 13:01:11;;;;;;;8.63;8.03;;;30.30;99.90;;;;;;1916952;75;21084;-79
2022/08/08 13:04:15;;;;;;;12.20;9.43;;;30.20;99.90;;;;;;1916911;75;21059;-79
2022/08/08 13:07:12;;;;;;;10.72;9.80;;;30.30;99.90;;;;;;1917153;75;21231;-78
2022/08/08 13:10:09;;;;;;;9.80;8.90;;;30.40;99.90;;;;;;1929098;73;21149;-78
2022/08/08 13:13:03;;;;;;;7.08;5.37;;;30.30;99.90;;;;;;1919641;73;21099;-78
2022/08/08 13:15:57;;;;;;;8.15;6.20;;;30.50;99.90;;;;;;1919715;73;21059;-78
2022/08/08 13:18:49;;;;;;;9.28;8.43;;;30.70;99.90;;;;;;1929965;73;21547;-78
2022/08/08 13:21:44;;;;;;;8.45;7.72;;;30.80;99.70;;;;;;1932812;73;21063;-79
2022/08/08 13:24:41;;;;;;;7.75;6.95;;;30.70;99.50;;;;;;1939922;73;21167;-79
2022/08/08 13:27:35;;;;;;;7.50;5.17;;;30.80;99.10;;;;;;1939850;73;21141;-78
2022/08/08 13:33:07;;;;;;;9.03;8.13;;;30.90;98.40;;;;;;1958311;72;22613;-79
2022/08/08 13:36:00;;;;;;;9.08;8.18;;;31.00;98.80;;;;;;1917486;75;21099;-79
2022/08/08 13:38:52;;;;;;;8.48;7.47;;;31.10;98.30;;;;;;1940126;73;21054;-79
2022/08/08 13:41:59;;;;;;;10.10;6.60;;;31.10;97.60;;;;;;1917748;75;21173;-79
2022/08/08 13:44:56;;;;;;;6.12;5.62;;;31.00;97.60;;;;;;1939744;73;21074;-78
2022/08/08 13:47:57;;;;;;;9.05;5.60;;;31.20;97.10;;;;;;1934117;73;21074;-78
2022/08/08 13:50:50;;;;;;;5.65;4.80;;;31.30;96.70;;;;;;1917579;75;21094;-79
2022/08/08 13:53:53;;;;;;;8.13;6.10;;;31.50;96.10;;;;;;1917498;75;21619;-79
2022/08/08 13:56:46;;;;;;;5.20;4.80;;;31.50;95.90;;;;;;1924573;73;21121;-78
2022/08/08 13:59:42;;;;;;;4.67;4.00;;;31.50;95.70;;;;;;1926741;73;21585;-79
2022/08/08 14:02:35;;;;;;;6.95;5.20;;;31.80;95.00;;;;;;1917737;75;21134;-79
2022/08/08 14:05:31;;;;;;;5.10;4.58;;;32.00;94.10;;;;;;1917800;75;21104;-78
2022/08/08 14:08:32;;;;;;;5.75;4.60;;;32.30;93.80;;;;;;1929765;73;21106;-78
2022/08/08 14:11:26;;;;;;;4.83;4.42;;;32.70;92.80;;;;;;1920852;73;21491;-79
2022/08/08 14:14:19;;;;;;;5.37;3.47;;;33.00;91.70;;;;;;1917187;75;21779;-79
2022/08/08 14:17:18;;;;;;;6.97;4.60;;;33.20;91.50;;;;;;1917438;75;21072;-79
2022/08/08 14:20:13;;;;;;;7.67;6.97;;;33.10;90.70;;;;;;1917455;75;21092;-80
2022/08/08 14:23:09;;;;;;;6.35;5.75;;;33.30;90.70;;;;;;1917455;75;21191;-80
2022/08/08 14:26:02;;;;;;;4.28;3.42;;;33.70;90.00;;;;;;1917411;75;21113;-80
2022/08/08 14:28:56;;;;;;;3.02;2.83;;;33.60;86.90;;;;;;1917338;75;21560;-80
2022/08/08 14:31:52;;;;;;;3.40;2.65;;;33.60;86.60;;;;;;1918892;74;21204;-80
2022/08/08 14:34:50;;;;;;;6.00;4.25;;;34.00;86.20;;;;;;1915814;74;21114;-80
2022/08/08 14:40:54;;;;;;;5.78;3.37;;;34.30;82.90;;;;;;1975666;72;22083;-82
2022/08/08 14:43:55;;;;;;;2.60;2.40;;;34.30;82.00;;;;;;1944063;73;21133;-80
2022/08/08 14:46:50;;;;;;;4.67;4.28;;;34.50;81.40;;;;;;1917768;75;21176;-80
2022/08/08 14:49:50;;;;;;;2.98;2.45;;;34.50;80.80;;;;;;1917427;75;21129;-80
2022/08/08 14:52:51;;;;;;;3.72;2.27;;;34.60;79.60;;;;;;1936226;73;21109;-81
2022/08/08 14:55:43;;;;;;;4.70;4.30;;;34.70;78.20;;;;;;1943352;73;21042;-80
2022/08/08 14:58:36;;;;;;;4.55;4.12;;;34.60;78.50;;;;;;1918788;73;21123;-81
2022/08/08 15:01:29;;;;;;;5.00;3.92;;;34.30;77.50;;;;;;1917545;75;21386;-82
2022/08/08 15:04:29;;;;;;;3.22;2.75;;;34.50;77.70;;;;;;1939818;73;21102;-80
2022/08/08 15:07:23;;;;;;;3.15;2.67;;;35.00;76.50;;;;;;1917487;75;21140;-80
2022/08/08 15:10:25;;;;;;;3.37;2.75;;;35.00;75.70;;;;;;1917563;75;21114;-79
2022/08/08 15:13:18;;;;;;;2.70;2.40;;;35.30;74.70;;;;;;1928902;73;21134;-79
2022/08/08 15:16:11;;;;;;;2.37;2.17;;;35.40;73.80;;;;;;1922416;73;21890;-80
2022/08/08 15:19:05;;;;;;;2.35;2.15;;;35.30;73.20;;;;;;1917461;75;21187;-80
2022/08/08 15:21:57;;;;;;;2.37;2.17;;;35.30;72.70;;;;;;1917498;75;21098;-80
2022/08/08 15:24:55;;;;;;;2.40;2.20;;;35.60;72.30;;;;;;1917427;75;21114;-80
2022/08/08 15:27:47;;;;;;;2.33;2.10;;;35.60;71.30;;;;;;1926722;73;21094;-80
2022/08/08 15:30:40;;;;;;;2.47;2.27;;;36.00;70.60;;;;;;1924156;73;21237;-79
2022/08/08 15:33:32;;;;;;;2.40;2.20;;;36.20;69.20;;;;;;1917504;75;21083;-80
2022/08/08 15:36:24;;;;;;;4.37;2.45;;;36.00;68.30;;;;;;1926945;74;21070;-80
2022/08/08 15:39:17;;;;;;;4.60;2.70;;;35.90;68.40;;;;;;1929631;73;21063;-80
2022/08/08 15:42:10;;;;;;;3.40;2.77;;;35.90;68.20;;;;;;1926455;73;21204;-79
2022/08/08 15:45:04;;;;;;;3.58;2.22;;;36.20;67.20;;;;;;1922543;74;21643;-80
2022/08/08 15:47:55;;;;;;;2.77;2.58;;;36.20;66.50;;;;;;1884255;75;21180;-80
2022/08/08 15:51:00;;;;;;;4.80;2.10;;;36.60;66.30;;;;;;1927699;73;21143;-80